This is the latest recevied weather packets stored in our database for station/object IU5GBO-13. If no packets are shown the sender has not sent any weather packets the latest 10 day(s).
| Time | Temp. | Humidity | Pressure | Rain* | Wind** | Luminosity | Snow |
|---|---|---|---|---|---|---|---|
| 1777922178 | 17.22° C | 71% | 1018.7 hPa | - | - | - | - |
| 1777920978 | 17.22° C | 70% | 1018.5 hPa | - | - | - | - |
| 1777919778 | 17.22° C | 69% | 1018.3 hPa | - | - | - | - |
| 1777918578 | 17.78° C | 69% | 1018.5 hPa | - | - | - | - |
| 1777916178 | 18.33° C | 66% | 1018.7 hPa | - | - | - | - |
| 1777914378 | 18.33° C | 64% | 1018.8 hPa | - | - | - | - |
| 1777911978 | 19.44° C | 61% | 1018.8 hPa | - | - | - | - |
| 1777910778 | 18.89° C | 61% | 1018.9 hPa | - | - | - | - |
| 1777908978 | 20° C | 58% | 1019 hPa | - | - | - | - |
| 1777908378 | 20° C | 58% | 1018.9 hPa | - | - | - | - |
| 1777907778 | 19.44° C | 58% | 1019.1 hPa | - | - | - | - |
| 1777907178 | 19.44° C | 57% | 1019.1 hPa | - | - | - | - |
| 1777906577 | 19.44° C | 57% | 1019 hPa | - | - | - | - |
| 1777905378 | 19.44° C | 59% | 1019.2 hPa | - | - | - | - |
| 1777903578 | 20° C | 55% | 1019.2 hPa | - | - | - | - |
| 1777902978 | 20.56° C | 55% | 1019.3 hPa | - | - | - | - |
| 1777902378 | 20.56° C | 53% | 1019.3 hPa | - | - | - | - |
| 1777901178 | 21.11° C | 52% | 1019.4 hPa | - | - | - | - |
| 1777900577 | 21.11° C | 52% | 1019.4 hPa | - | - | - | - |
| 1777899978 | 21.11° C | 52% | 1019.5 hPa | - | - | - | - |
| 1777898778 | 21.11° C | 52% | 1019.7 hPa | - | - | - | - |
| 1777898178 | 21.11° C | 51% | 1019.8 hPa | - | - | - | - |
| 1777897577 | 21.67° C | 50% | 1019.8 hPa | - | - | - | - |
| 1777896978 | 21.67° C | 51% | 1019.9 hPa | - | - | - | - |
| 1777896377 | 21.67° C | 51% | 1020 hPa | - | - | - | - |
* Rain since midnight (hover to see other rain measurements)
** Current wind speed in m/s (hover to see current wind gust speed)